Time;durP1;ratioP1;P1;durP2;ratioP2;P2;SDS_P1;SDS_P2;PMS_P1;PMS_P2;Temp;Humidity;BMP_temperature;BMP_pressure;BME280_temperature;BME280_humidity;BME280_pressure;Samples;Min_cycle;Max_cycle;Signal;HPM_P1;HPM_P2
2023/10/12 00:02:05;;;;;;;18.40;14.43;;;18.60;99.90;;;;;;6240605;23;20004;-74
2023/10/12 00:04:36;;;;;;;15.13;13.52;;;18.60;99.90;;;;;;6241190;23;20061;-74
2023/10/12 00:07:15;;;;;;;16.77;13.30;;;18.50;99.90;;;;;;6240495;23;20008;-74
2023/10/12 00:09:48;;;;;;;14.75;12.68;;;18.50;99.90;;;;;;6240847;23;20012;-74
2023/10/12 00:12:24;;;;;;;19.55;12.80;;;18.50;99.90;;;;;;6240522;23;20059;-74
2023/10/12 00:14:56;;;;;;;23.70;15.75;;;18.50;99.90;;;;;;6240220;23;20000;-74
2023/10/12 00:17:26;;;;;;;18.52;13.98;;;18.50;99.90;;;;;;6240774;23;20012;-74
2023/10/12 00:19:52;;;;;;;16.98;14.35;;;18.50;99.90;;;;;;6240952;23;20084;-74
2023/10/12 00:22:18;;;;;;;26.10;17.23;;;18.50;99.90;;;;;;6240697;23;20432;-75
2023/10/12 00:24:43;;;;;;;20.65;17.95;;;18.50;99.90;;;;;;6240676;23;20081;-74
2023/10/12 00:27:11;;;;;;;18.30;15.43;;;18.50;99.90;;;;;;6240387;23;20007;-74
2023/10/12 00:29:40;;;;;;;18.20;15.70;;;18.50;99.90;;;;;;6240679;23;20321;-74
2023/10/12 00:32:09;;;;;;;22.73;16.00;;;18.50;99.90;;;;;;6240524;23;20000;-74
2023/10/12 00:34:37;;;;;;;21.98;15.27;;;18.50;99.90;;;;;;6240846;23;20051;-74
2023/10/12 00:37:03;;;;;;;21.63;16.80;;;18.50;99.90;;;;;;6240388;23;20000;-74
2023/10/12 00:39:56;;;;;;;23.02;17.23;;;18.50;99.90;;;;;;6240683;23;20000;-74
2023/10/12 00:42:17;;;;;;;23.73;17.00;;;18.50;99.90;;;;;;6241167;23;20103;-74
2023/10/12 00:44:43;;;;;;;24.95;16.52;;;18.50;99.90;;;;;;6242997;23;20004;-74
2023/10/12 00:47:13;;;;;;;19.73;17.52;;;18.50;99.90;;;;;;6242358;23;20011;-74
2023/10/12 00:49:46;;;;;;;21.65;16.38;;;18.50;99.90;;;;;;6242467;23;20004;-74
2023/10/12 00:52:22;;;;;;;21.85;17.63;;;18.50;99.90;;;;;;6242407;23;20053;-75
2023/10/12 00:54:55;;;;;;;20.70;16.00;;;18.50;99.90;;;;;;6242673;23;20000;-75
2023/10/12 00:57:24;;;;;;;21.55;15.48;;;18.50;99.90;;;;;;6241880;23;20544;-75
2023/10/12 00:59:52;;;;;;;26.48;18.15;;;18.50;99.90;;;;;;6242381;23;20004;-76
2023/10/12 01:02:21;;;;;;;23.50;18.40;;;18.50;99.90;;;;;;6242296;23;20000;-75
2023/10/12 01:04:48;;;;;;;23.92;19.80;;;18.40;99.90;;;;;;6242446;23;20050;-75
2023/10/12 01:07:20;;;;;;;31.67;18.83;;;18.40;99.90;;;;;;6242070;23;20057;-76
2023/10/12 01:09:49;;;;;;;24.35;18.52;;;18.40;99.90;;;;;;6242518;23;20012;-75
2023/10/12 01:12:14;;;;;;;23.73;17.98;;;18.40;99.90;;;;;;6241322;23;20002;-75
2023/10/12 01:14:47;;;;;;;21.33;18.60;;;18.30;99.90;;;;;;6215319;23;20008;-75
2023/10/12 01:17:29;;;;;;;28.58;20.35;;;18.30;99.90;;;;;;6242006;23;20012;-76
2023/10/12 01:19:55;;;;;;;27.33;21.65;;;18.30;99.90;;;;;;6241808;23;20381;-76
2023/10/12 01:22:27;;;;;;;29.35;21.25;;;18.30;99.90;;;;;;6242401;23;20030;-76
2023/10/12 01:27:21;;;;;;;32.15;21.52;;;18.30;99.90;;;;;;6241639;23;20348;-75
2023/10/12 01:29:47;;;;;;;33.72;23.52;;;18.30;99.90;;;;;;6242189;23;20075;-76
2023/10/12 01:34:44;;;;;;;28.05;23.08;;;18.20;99.90;;;;;;6242401;23;20012;-75
2023/10/12 01:37:41;;;;;;;27.55;22.05;;;18.20;99.90;;;;;;6241589;23;20074;-74
2023/10/12 01:39:59;;;;;;;26.98;21.88;;;18.20;99.90;;;;;;6240998;23;20000;-75
2023/10/12 01:42:41;;;;;;;28.38;21.48;;;18.20;99.90;;;;;;6241423;23;20070;-75
2023/10/12 01:48:05;;;;;;;32.22;23.55;;;18.20;99.90;;;;;;6252219;23;20337;-75
2023/10/12 01:50:33;;;;;;;27.55;23.33;;;18.20;99.90;;;;;;6241772;23;20000;-76
2023/10/12 01:52:58;;;;;;;26.00;21.08;;;18.20;99.90;;;;;;6242129;23;20000;-75
2023/10/12 01:55:31;;;;;;;28.65;23.02;;;18.20;99.90;;;;;;6241061;23;20011;-75
2023/10/12 01:57:58;;;;;;;25.08;21.30;;;18.10;99.90;;;;;;6242196;23;20004;-75
2023/10/12 02:00:27;;;;;;;33.88;23.00;;;18.10;99.90;;;;;;6241673;23;20031;-75
2023/10/12 02:05:46;;;;;;;26.83;21.27;;;18.10;99.90;;;;;;6241893;23;20067;-75
2023/10/12 02:08:16;;;;;;;24.58;21.42;;;18.10;99.90;;;;;;6241778;23;20011;-75
2023/10/12 02:10:56;;;;;;;32.80;23.80;;;18.10;99.90;;;;;;6239098;23;20119;-75
2023/10/12 02:13:23;;;;;;;25.88;21.60;;;18.10;99.90;;;;;;6240775;23;20004;-75
2023/10/12 02:15:52;;;;;;;29.05;22.00;;;18.10;99.90;;;;;;6240903;23;20380;-75
2023/10/12 02:18:19;;;;;;;29.73;22.77;;;18.10;99.90;;;;;;6240260;23;20079;-75
2023/10/12 02:21:08;;;;;;;28.40;20.55;;;18.00;99.90;;;;;;6241805;23;20326;-75
2023/10/12 02:23:40;;;;;;;22.90;19.95;;;18.00;99.90;;;;;;6241057;23;20019;-75
2023/10/12 02:28:53;;;;;;;29.38;20.67;;;18.00;99.90;;;;;;6241816;23;20015;-75
2023/10/12 02:31:28;;;;;;;30.48;21.33;;;18.00;99.90;;;;;;6241063;23;20011;-75
2023/10/12 02:33:55;;;;;;;25.30;20.52;;;17.90;99.90;;;;;;6241288;23;20000;-75
2023/10/12 02:36:21;;;;;;;23.92;19.05;;;17.90;99.90;;;;;;6241162;23;20019;-75
2023/10/12 02:38:47;;;;;;;23.08;16.67;;;17.90;99.90;;;;;;6241046;23;20086;-74
2023/10/12 02:41:12;;;;;;;22.42;16.83;;;17.90;99.90;;;;;;6241335;23;20020;-75
2023/10/12 02:43:50;;;;;;;18.75;14.80;;;17.90;99.90;;;;;;6241567;23;20000;-74
2023/10/12 02:46:22;;;;;;;20.90;14.20;;;17.90;99.90;;;;;;6241506;23;19996;-75
2023/10/12 02:48:50;;;;;;;20.33;14.05;;;17.90;99.90;;;;;;6241731;23;20003;-75
2023/10/12 02:51:17;;;;;;;19.45;15.02;;;17.90;99.90;;;;;;6241323;23;20046;-74
2023/10/12 02:53:44;;;;;;;22.40;13.98;;;17.80;99.90;;;;;;6240747;23;20019;-75
2023/10/12 02:56:09;;;;;;;17.30;14.18;;;17.90;99.90;;;;;;6241205;23;20011;-75
2023/10/12 02:58:35;;;;;;;17.40;12.75;;;17.90;99.90;;;;;;6241415;23;20070;-75
2023/10/12 03:01:13;;;;;;;21.30;14.52;;;17.80;99.90;;;;;;6241208;23;20004;-75
2023/10/12 03:03:48;;;;;;;22.25;13.73;;;17.80;99.90;;;;;;6241343;23;20011;-75
2023/10/12 03:06:20;;;;;;;16.85;12.15;;;17.80;99.90;;;;;;6241232;23;20040;-75
2023/10/12 03:08:59;;;;;;;23.25;13.50;;;17.80;99.90;;;;;;6240996;23;20004;-75
2023/10/12 03:11:27;;;;;;;16.48;12.70;;;17.70;99.90;;;;;;6241084;23;20079;-74
2023/10/12 03:14:00;;;;;;;16.92;12.38;;;17.70;99.90;;;;;;6241297;23;20000;-75
2023/10/12 03:16:33;;;;;;;24.02;13.30;;;17.70;99.90;;;;;;6240903;23;20330;-75
2023/10/12 03:19:16;;;;;;;16.55;11.00;;;17.60;99.90;;;;;;6240028;23;20004;-75
2023/10/12 03:21:46;;;;;;;17.27;12.05;;;17.60;99.90;;;;;;6238024;23;20023;-75
2023/10/12 03:24:13;;;;;;;18.65;10.00;;;17.60;99.90;;;;;;6238589;23;19996;-75
2023/10/12 03:26:39;;;;;;;13.98;9.43;;;17.60;99.90;;;;;;6238449;23;20070;-75
2023/10/12 03:29:26;;;;;;;21.35;11.68;;;17.60;99.90;;;;;;6238719;23;20004;-75
2023/10/12 03:31:54;;;;;;;15.70;9.93;;;17.60;99.90;;;;;;6238686;23;20004;-75
2023/10/12 03:34:35;;;;;;;14.85;11.77;;;17.60;99.90;;;;;;6238776;23;20001;-75
2023/10/12 03:37:11;;;;;;;21.17;11.43;;;17.50;99.90;;;;;;6240200;23;20038;-75
2023/10/12 03:42:52;;;;;;;20.40;10.48;;;17.50;99.90;;;;;;6241732;23;20016;-76
2023/10/12 03:45:08;;;;;;;21.00;10.90;;;17.50;99.90;;;;;;6235016;23;20087;-76
2023/10/12 03:48:03;;;;;;;18.98;12.50;;;17.50;99.90;;;;;;6240486;23;20386;-75
2023/10/12 03:50:53;;;;;;;14.98;9.98;;;17.50;99.90;;;;;;6240438;23;20048;-75
2023/10/12 03:53:26;;;;;;;16.25;11.15;;;17.50;99.90;;;;;;6240423;23;20007;-76
2023/10/12 03:55:58;;;;;;;20.55;10.90;;;17.50;99.90;;;;;;6240986;23;20393;-75
2023/10/12 03:58:24;;;;;;;13.95;9.55;;;17.50;99.90;;;;;;6240823;23;20437;-75
2023/10/12 04:01:24;;;;;;;17.25;10.80;;;17.50;99.90;;;;;;6241221;23;19996;-75
2023/10/12 04:03:40;;;;;;;20.27;12.07;;;17.50;99.90;;;;;;6239862;23;20004;-75
2023/10/12 04:06:23;;;;;;;14.95;11.05;;;17.50;99.90;;;;;;6240451;23;20118;-74
2023/10/12 04:08:54;;;;;;;20.15;12.30;;;17.50;99.90;;;;;;6241209;23;20004;-75
2023/10/12 04:11:47;;;;;;;18.50;11.90;;;17.60;99.90;;;;;;6241080;23;20015;-75
2023/10/12 04:14:43;;;;;;;22.02;11.23;;;17.60;99.90;;;;;;6240716;23;20012;-74
2023/10/12 04:17:08;;;;;;;19.90;12.55;;;17.60;99.90;;;;;;6242515;23;20034;-75
2023/10/12 04:19:34;;;;;;;21.05;12.00;;;17.60;99.90;;;;;;6242102;23;20485;-75
2023/10/12 04:22:15;;;;;;;19.23;13.60;;;17.60;99.90;;;;;;6242565;23;20022;-75
2023/10/12 04:24:43;;;;;;;21.15;12.57;;;17.60;99.90;;;;;;6242567;23;20006;-75
2023/10/12 04:27:38;;;;;;;17.10;11.70;;;17.60;99.90;;;;;;6242780;23;20464;-75
2023/10/12 04:30:19;;;;;;;23.23;13.85;;;17.60;99.90;;;;;;6242735;23;20014;-75
2023/10/12 04:35:45;;;;;;;23.48;13.05;;;17.60;99.90;;;;;;6252574;23;20099;-75
2023/10/12 04:38:27;;;;;;;18.77;13.02;;;17.60;99.90;;;;;;6242878;23;20023;-75
2023/10/12 04:43:52;;;;;;;17.38;13.63;;;17.60;99.90;;;;;;6238363;23;20051;-75
2023/10/12 04:48:51;;;;;;;17.50;12.63;;;17.60;99.90;;;;;;6247634;23;20008;-75
2023/10/12 04:51:21;;;;;;;18.25;11.38;;;17.60;99.90;;;;;;6240844;23;20007;-74
2023/10/12 04:54:06;;;;;;;22.42;14.65;;;17.60;99.90;;;;;;6242373;23;20005;-75
2023/10/12 04:56:37;;;;;;;24.48;14.05;;;17.60;99.90;;;;;;6242541;23;20012;-75
2023/10/12 04:59:15;;;;;;;20.63;14.15;;;17.60;99.90;;;;;;6242617;23;20005;-75
2023/10/12 05:02:27;;;;;;;24.52;15.10;;;17.60;99.90;;;;;;6242512;23;20012;-75
2023/10/12 05:09:48;;;;;;;21.58;16.60;;;17.60;99.90;;;;;;6242132;23;20008;-75
2023/10/12 05:12:23;;;;;;;29.45;18.90;;;17.60;99.90;;;;;;6242108;23;19997;-75
2023/10/12 05:14:57;;;;;;;24.88;20.60;;;17.60;99.90;;;;;;6242410;23;19997;-75
2023/10/12 05:17:23;;;;;;;27.02;19.80;;;17.60;99.90;;;;;;6241882;23;20028;-75
2023/10/12 05:19:52;;;;;;;24.13;21.45;;;17.60;99.90;;;;;;6241741;23;20007;-75
2023/10/12 05:22:21;;;;;;;24.10;21.55;;;17.60;99.90;;;;;;6242295;23;20003;-75
2023/10/12 05:24:46;;;;;;;32.10;26.45;;;17.60;99.90;;;;;;6242076;23;20004;-74
2023/10/12 05:27:38;;;;;;;30.58;25.75;;;17.60;99.90;;;;;;6241971;23;20008;-75
2023/10/12 05:30:06;;;;;;;34.67;26.77;;;17.60;99.90;;;;;;6242041;23;20421;-75
2023/10/12 05:32:37;;;;;;;33.28;27.80;;;17.60;99.90;;;;;;6241731;23;20019;-74
2023/10/12 05:35:06;;;;;;;38.83;30.73;;;17.60;99.90;;;;;;6242092;23;20418;-75
2023/10/12 05:37:38;;;;;;;54.60;34.10;;;17.60;99.90;;;;;;6241770;23;20061;-75
2023/10/12 05:40:13;;;;;;;34.83;28.58;;;17.60;99.90;;;;;;6242013;23;20004;-74
2023/10/12 05:42:39;;;;;;;37.20;30.55;;;17.60;99.90;;;;;;6241594;23;20015;-74
2023/10/12 05:45:31;;;;;;;37.15;31.60;;;17.60;99.90;;;;;;6242100;23;20000;-74
2023/10/12 05:47:56;;;;;;;38.22;32.80;;;17.60;99.90;;;;;;6241503;23;20004;-71
2023/10/12 05:50:26;;;;;;;42.50;34.58;;;17.60;99.90;;;;;;6241691;23;20151;-72
2023/10/12 05:52:53;;;;;;;38.50;32.08;;;17.60;99.90;;;;;;6241897;23;20032;-71
2023/10/12 05:55:21;;;;;;;40.90;32.65;;;17.50;99.90;;;;;;6241883;23;20303;-72
2023/10/12 05:57:50;;;;;;;39.88;35.63;;;17.60;99.90;;;;;;6242127;23;20000;-72
2023/10/12 06:00:35;;;;;;;39.72;35.25;;;17.50;99.90;;;;;;6241881;23;20034;-72
2023/10/12 06:03:10;;;;;;;38.10;31.50;;;17.50;99.90;;;;;;6241555;23;20000;-72
2023/10/12 06:05:36;;;;;;;36.00;32.00;;;17.50;99.90;;;;;;6242020;23;20004;-72
2023/10/12 06:08:03;;;;;;;37.63;31.67;;;17.50;99.90;;;;;;6241472;23;20432;-71
2023/10/12 06:10:29;;;;;;;47.70;35.50;;;17.50;99.90;;;;;;6241830;23;20008;-72
2023/10/12 06:12:56;;;;;;;37.88;33.63;;;17.50;99.90;;;;;;6241713;23;20084;-72
2023/10/12 06:15:25;;;;;;;44.97;33.95;;;17.50;99.90;;;;;;6241365;23;20015;-72
2023/10/12 06:17:54;;;;;;;44.30;33.90;;;17.50;99.90;;;;;;6241478;23;20027;-72
2023/10/12 06:20:35;;;;;;;40.80;32.20;;;17.50;99.90;;;;;;6239703;23;20000;-72
2023/10/12 06:23:05;;;;;;;50.47;38.08;;;17.50;99.90;;;;;;6240240;23;20032;-72
2023/10/12 06:25:30;;;;;;;50.60;36.80;;;17.50;99.90;;;;;;6240667;23;20025;-72
2023/10/12 06:27:56;;;;;;;46.47;36.70;;;17.50;99.90;;;;;;6240376;23;20073;-72
2023/10/12 06:30:23;;;;;;;46.20;37.45;;;17.50;99.90;;;;;;6240114;23;20009;-71
2023/10/12 06:32:49;;;;;;;43.95;34.35;;;17.50;99.90;;;;;;6241064;23;20071;-71
2023/10/12 06:45:52;;;;;;;1.50;0.85;;;17.00;99.90;;;;;;6240913;23;20379;-71
2023/10/12 06:51:02;;;;;;;1.50;0.82;;;16.50;99.90;;;;;;6250768;23;20362;-72
2023/10/12 06:53:35;;;;;;;3.40;1.00;;;16.30;99.90;;;;;;6241379;23;20004;-72
2023/10/12 06:56:27;;;;;;;3.58;1.02;;;16.20;99.90;;;;;;6241218;23;20376;-72
2023/10/12 06:59:13;;;;;;;2.45;1.10;;;16.00;99.90;;;;;;6240350;23;20008;-72
2023/10/12 07:04:15;;;;;;;8.47;1.50;;;15.70;99.90;;;;;;6249087;23;20008;-72
2023/10/12 07:07:07;;;;;;;5.47;1.15;;;15.60;99.90;;;;;;6240259;23;20517;-72
2023/10/12 07:09:39;;;;;;;4.65;1.33;;;15.60;99.90;;;;;;6239510;23;20397;-72
2023/10/12 07:12:10;;;;;;;4.10;0.80;;;15.50;99.90;;;;;;6240498;23;20004;-72
2023/10/12 07:14:46;;;;;;;3.28;1.05;;;15.50;99.90;;;;;;6240170;23;20075;-71
2023/10/12 07:17:12;;;;;;;3.70;1.42;;;15.50;99.90;;;;;;6241600;23;20130;-71
2023/10/12 07:19:50;;;;;;;5.43;1.25;;;15.50;99.90;;;;;;6240012;23;20443;-72
2023/10/12 07:22:16;;;;;;;4.72;1.30;;;15.50;99.90;;;;;;6240598;23;20007;-72
2023/10/12 07:24:42;;;;;;;4.45;1.70;;;15.40;99.90;;;;;;6240610;23;20010;-72
2023/10/12 07:27:11;;;;;;;6.22;1.58;;;15.30;99.90;;;;;;6240087;23;20027;-72
2023/10/12 07:29:44;;;;;;;3.50;1.48;;;15.30;99.90;;;;;;6239626;23;20058;-72
2023/10/12 07:34:54;;;;;;;4.72;1.48;;;15.20;99.90;;;;;;6240892;23;20011;-72
2023/10/12 07:37:20;;;;;;;5.75;2.28;;;15.20;99.90;;;;;;6240794;23;20000;-72
2023/10/12 07:39:46;;;;;;;3.85;1.63;;;15.20;99.90;;;;;;6238695;23;20046;-72
2023/10/12 07:42:25;;;;;;;3.47;1.73;;;15.20;99.90;;;;;;6239741;23;20024;-72
2023/10/12 07:44:59;;;;;;;4.50;2.58;;;15.10;99.90;;;;;;6240091;23;20062;-72
2023/10/12 07:47:31;;;;;;;5.18;2.88;;;15.10;99.90;;;;;;6240622;23;20003;-72
2023/10/12 07:49:58;;;;;;;4.07;2.70;;;15.20;99.90;;;;;;6240932;23;20086;-72
2023/10/12 07:55:17;;;;;;;6.38;3.25;;;15.20;99.90;;;;;;6240166;23;20027;-72
2023/10/12 07:57:44;;;;;;;8.40;3.47;;;15.20;99.90;;;;;;6240136;23;20274;-72
2023/10/12 08:05:17;;;;;;;8.90;3.22;;;15.20;99.90;;;;;;6250874;23;20015;-72
2023/10/12 08:08:07;;;;;;;4.20;2.05;;;15.10;99.90;;;;;;6239633;23;20000;-72
2023/10/12 08:15:58;;;;;;;3.75;2.42;;;15.10;99.90;;;;;;6251330;23;20015;-72
2023/10/12 08:21:32;;;;;;;4.03;1.50;;;15.10;99.90;;;;;;6240157;23;20008;-71
2023/10/12 08:39:49;;;;;;;2.60;0.98;;;15.20;99.90;;;;;;6250340;23;20008;-72
2023/10/12 08:44:51;;;;;;;1.67;0.98;;;15.20;99.90;;;;;;6250808;23;20012;-72
2023/10/12 08:48:01;;;;;;;2.95;1.08;;;15.20;99.90;;;;;;6239494;23;20019;-72
2023/10/12 08:52:52;;;;;;;1.65;1.20;;;15.30;99.90;;;;;;6240428;23;20007;-73
2023/10/12 08:55:24;;;;;;;3.15;1.40;;;15.30;99.90;;;;;;6240121;23;20699;-72
2023/10/12 08:58:11;;;;;;;2.35;1.42;;;15.30;99.90;;;;;;6239311;23;20079;-72
2023/10/12 09:00:45;;;;;;;2.70;1.08;;;15.40;99.90;;;;;;6240794;23;20114;-72
2023/10/12 09:05:51;;;;;;;3.63;1.52;;;15.40;99.90;;;;;;6251676;23;20386;-72
2023/10/12 09:10:49;;;;;;;2.78;1.30;;;15.40;99.90;;;;;;6241343;23;20008;-72
2023/10/12 09:13:22;;;;;;;3.08;1.20;;;15.40;99.90;;;;;;6242301;23;20000;-72
2023/10/12 09:15:56;;;;;;;5.60;1.33;;;15.40;99.90;;;;;;6241757;23;20007;-72
2023/10/12 09:18:24;;;;;;;2.35;1.20;;;15.40;99.90;;;;;;6240509;23;20066;-72
2023/10/12 09:23:28;;;;;;;4.13;0.85;;;15.50;99.90;;;;;;6251726;23;20004;-72
2023/10/12 09:31:14;;;;;;;3.00;1.63;;;15.60;99.90;;;;;;6251773;23;20315;-73
2023/10/12 09:36:55;;;;;;;2.45;1.55;;;15.60;99.90;;;;;;6149248;23;20052;-73
2023/10/12 09:39:25;;;;;;;5.43;1.90;;;15.60;99.90;;;;;;6146535;23;20012;-72
2023/10/12 09:41:55;;;;;;;3.00;2.13;;;15.60;99.90;;;;;;6148225;23;20017;-72
2023/10/12 09:44:28;;;;;;;2.10;1.55;;;15.70;99.90;;;;;;6148675;23;20394;-73
2023/10/12 09:46:59;;;;;;;3.10;2.00;;;15.70;99.90;;;;;;6148575;23;20001;-72
2023/10/12 09:49:27;;;;;;;2.53;1.48;;;15.80;99.90;;;;;;6148485;23;20237;-72
2023/10/12 09:52:04;;;;;;;2.90;1.60;;;15.80;99.90;;;;;;6146987;23;20020;-72
2023/10/12 09:54:46;;;;;;;1.60;0.88;;;15.90;99.90;;;;;;6149311;23;20012;-72
2023/10/12 09:57:26;;;;;;;2.33;1.45;;;15.90;99.90;;;;;;6148096;23;20112;-72
2023/10/12 09:59:59;;;;;;;2.47;1.40;;;15.90;99.90;;;;;;6147415;23;20109;-72
2023/10/12 10:02:33;;;;;;;2.38;1.58;;;15.80;99.90;;;;;;6145452;23;20001;-71
2023/10/12 10:05:03;;;;;;;2.78;1.63;;;15.90;99.90;;;;;;6148266;23;20005;-70
2023/10/12 10:07:36;;;;;;;2.40;1.75;;;15.80;99.90;;;;;;6148113;23;20013;-71
2023/10/12 10:10:05;;;;;;;2.30;1.42;;;15.80;99.90;;;;;;6146733;23;20073;-71
2023/10/12 10:12:42;;;;;;;2.42;2.03;;;15.80;99.90;;;;;;6200835;23;20182;-72
2023/10/12 10:15:20;;;;;;;3.70;2.40;;;15.80;99.90;;;;;;6240245;23;20003;-70
2023/10/12 10:17:52;;;;;;;2.60;2.08;;;15.80;99.90;;;;;;6214116;23;20013;-70
2023/10/12 10:22:56;;;;;;;3.95;2.67;;;15.90;99.90;;;;;;6249583;23;20015;-71
2023/10/12 10:25:42;;;;;;;3.92;2.70;;;16.00;99.90;;;;;;6241124;23;20008;-71
2023/10/12 10:28:13;;;;;;;5.80;3.40;;;16.00;99.90;;;;;;6241114;23;20030;-71
2023/10/12 10:30:41;;;;;;;4.60;2.63;;;16.00;99.90;;;;;;6240694;23;20070;-71
2023/10/12 10:33:12;;;;;;;4.30;2.78;;;16.10;99.90;;;;;;6240870;23;20000;-72
2023/10/12 10:36:10;;;;;;;4.35;2.83;;;16.10;99.90;;;;;;6240265;23;20000;-71
2023/10/12 10:38:53;;;;;;;4.45;2.92;;;16.20;99.90;;;;;;6173959;23;20004;-71
2023/10/12 10:41:38;;;;;;;5.05;3.95;;;16.20;99.90;;;;;;6241311;22;20016;-71
2023/10/12 10:44:09;;;;;;;3.55;3.22;;;16.20;99.90;;;;;;6240923;23;20035;-71
2023/10/12 10:46:39;;;;;;;4.68;3.40;;;16.20;99.90;;;;;;6240433;23;20000;-71
2023/10/12 10:49:06;;;;;;;6.03;3.88;;;16.30;99.90;;;;;;6241038;23;20004;-71
2023/10/12 10:51:32;;;;;;;4.95;4.03;;;16.30;99.90;;;;;;6240570;23;20004;-71
2023/10/12 10:53:58;;;;;;;8.73;5.28;;;16.30;99.90;;;;;;6241475;23;20142;-71
2023/10/12 10:56:41;;;;;;;5.22;4.13;;;16.30;99.90;;;;;;6239567;23;20000;-72
2023/10/12 10:59:14;;;;;;;6.20;5.23;;;16.40;99.90;;;;;;6214475;23;20394;-71
2023/10/12 11:01:41;;;;;;;10.80;6.28;;;16.40;99.90;;;;;;6240897;23;20452;-71
2023/10/12 11:04:17;;;;;;;5.03;4.20;;;16.40;99.90;;;;;;6240393;23;20369;-71
2023/10/12 11:06:49;;;;;;;5.47;4.97;;;16.40;99.90;;;;;;6239286;23;20067;-71
2023/10/12 11:09:16;;;;;;;7.00;5.70;;;16.40;99.90;;;;;;6240438;23;20004;-71
2023/10/12 11:11:45;;;;;;;5.55;4.60;;;16.50;99.90;;;;;;6240393;23;20067;-71
2023/10/12 11:14:18;;;;;;;7.18;5.32;;;16.50;99.90;;;;;;6240713;23;20031;-71
2023/10/12 11:16:46;;;;;;;;;;;16.60;99.90;;;;;;6241114;23;20000;-71
2023/10/12 11:19:12;;;;;;;7.07;4.95;;;16.70;99.90;;;;;;6212512;23;19904;-71
2023/10/12 11:21:57;;;;;;;9.45;5.38;;;16.70;99.90;;;;;;6240157;23;19996;-70
2023/10/12 11:24:24;;;;;;;7.60;6.28;;;16.80;99.90;;;;;;6241135;23;20072;-70
2023/10/12 11:27:01;;;;;;;8.00;7.10;;;16.80;99.90;;;;;;6241771;23;20111;-71
2023/10/12 11:29:27;;;;;;;8.50;7.60;;;16.80;99.90;;;;;;6239568;23;20005;-71
2023/10/12 11:32:10;;;;;;;9.18;7.22;;;16.80;99.90;;;;;;6239679;23;20049;-71
2023/10/12 11:34:52;;;;;;;9.00;7.83;;;16.90;99.90;;;;;;6239613;23;20000;-71
2023/10/12 11:37:18;;;;;;;15.68;9.40;;;17.00;99.90;;;;;;6240824;23;20004;-71
2023/10/12 11:39:50;;;;;;;12.68;9.63;;;17.00;99.90;;;;;;6238335;23;20004;-71
2023/10/12 11:42:17;;;;;;;14.52;10.60;;;17.10;99.90;;;;;;6239466;23;20016;-70
2023/10/12 11:44:45;;;;;;;11.93;9.55;;;17.10;99.90;;;;;;6241863;23;20006;-70
2023/10/12 11:47:17;;;;;;;12.40;10.35;;;17.10;99.90;;;;;;6240094;23;20329;-72
2023/10/12 11:49:56;;;;;;;9.35;6.93;;;17.10;99.90;;;;;;6240217;23;20004;-70
2023/10/12 11:52:34;;;;;;;11.52;10.30;;;17.10;99.90;;;;;;6238868;23;20507;-71
2023/10/12 11:55:07;;;;;;;14.15;10.75;;;17.10;99.90;;;;;;6238759;23;20014;-71
2023/10/12 11:57:35;;;;;;;16.38;9.95;;;17.10;99.90;;;;;;6240474;23;20069;-71
2023/10/12 12:00:20;;;;;;;12.77;10.85;;;17.10;99.90;;;;;;6240791;23;20008;-71
2023/10/12 12:02:53;;;;;;;16.27;11.05;;;17.10;99.90;;;;;;6239349;23;20280;-71
2023/10/12 12:05:22;;;;;;;13.93;11.50;;;17.10;99.90;;;;;;6240156;23;20007;-72
2023/10/12 12:07:51;;;;;;;14.98;13.18;;;17.10;99.90;;;;;;6240537;23;20000;-71
2023/10/12 12:10:44;;;;;;;14.93;11.98;;;17.20;99.90;;;;;;6240276;23;20004;-72
2023/10/12 12:13:09;;;;;;;17.95;13.18;;;17.20;99.90;;;;;;6239302;23;20007;-71
2023/10/12 12:15:36;;;;;;;20.55;13.85;;;17.20;99.90;;;;;;6240702;23;20000;-71
2023/10/12 12:18:05;;;;;;;15.40;13.05;;;17.20;99.90;;;;;;6239969;23;20151;-71
2023/10/12 12:20:39;;;;;;;16.80;12.80;;;17.20;99.90;;;;;;6241118;23;20172;-71
2023/10/12 12:23:05;;;;;;;18.98;14.65;;;17.30;99.90;;;;;;6240235;23;20443;-71
2023/10/12 12:25:34;;;;;;;17.20;13.88;;;17.40;99.90;;;;;;6239857;23;20079;-71
2023/10/12 12:28:02;;;;;;;19.55;14.93;;;17.30;99.90;;;;;;6239673;23;20342;-71
2023/10/12 12:30:46;;;;;;;17.27;13.30;;;17.40;99.90;;;;;;6240683;23;19997;-71
2023/10/12 12:33:15;;;;;;;19.30;14.57;;;17.40;99.90;;;;;;6240363;23;20086;-71
2023/10/12 12:35:41;;;;;;;16.42;13.65;;;17.50;99.90;;;;;;6239796;23;20079;-70
2023/10/12 12:38:21;;;;;;;20.15;15.10;;;17.50;99.90;;;;;;6243427;23;20000;-70
2023/10/12 12:40:47;;;;;;;21.27;14.55;;;17.50;99.90;;;;;;6242816;23;20337;-70
2023/10/12 12:43:12;;;;;;;20.92;15.95;;;17.50;99.90;;;;;;6242989;23;20008;-71
2023/10/12 12:45:38;;;;;;;21.17;15.95;;;17.50;99.90;;;;;;6239206;23;20004;-70
2023/10/12 12:48:04;;;;;;;21.88;16.88;;;17.50;99.90;;;;;;6241060;23;20000;-71
2023/10/12 12:50:30;;;;;;;22.17;16.58;;;17.50;99.90;;;;;;6241319;23;20075;-71
2023/10/12 12:52:57;;;;;;;27.42;18.83;;;17.50;99.90;;;;;;6241659;23;20422;-71
2023/10/12 12:55:28;;;;;;;16.55;13.20;;;17.50;99.90;;;;;;6241280;23;20001;-71
2023/10/12 12:57:56;;;;;;;23.85;18.40;;;17.50;99.90;;;;;;6240300;23;20000;-71
2023/10/12 13:00:22;;;;;;;25.35;18.75;;;17.60;99.90;;;;;;6241271;23;20004;-70
2023/10/12 13:02:48;;;;;;;26.35;19.17;;;17.50;99.90;;;;;;6241745;23;20007;-70
2023/10/12 13:05:14;;;;;;;26.83;21.02;;;17.60;99.90;;;;;;6243160;23;20000;-71
2023/10/12 13:07:41;;;;;;;22.80;18.55;;;17.60;99.90;;;;;;6241775;23;20444;-71
2023/10/12 13:10:11;;;;;;;37.70;22.65;;;17.60;99.90;;;;;;6242508;23;20012;-71
2023/10/12 13:12:37;;;;;;;34.28;21.60;;;17.60;99.90;;;;;;6243495;23;20004;-71
2023/10/12 13:15:03;;;;;;;62.10;29.38;;;17.60;99.90;;;;;;6242494;23;20004;-70
2023/10/12 13:17:31;;;;;;;33.30;23.80;;;17.60;99.90;;;;;;6242808;23;20011;-71
2023/10/12 13:20:00;;;;;;;25.88;20.27;;;17.60;99.90;;;;;;6241438;23;19996;-70
2023/10/12 13:22:26;;;;;;;27.90;22.58;;;17.60;99.90;;;;;;6243475;23;20011;-71
2023/10/12 13:24:56;;;;;;;33.38;22.45;;;17.60;99.90;;;;;;6243549;23;20019;-70
2023/10/12 13:27:32;;;;;;;24.50;20.95;;;17.60;99.90;;;;;;6243206;23;20016;-71
2023/10/12 13:30:01;;;;;;;28.05;23.73;;;17.60;99.90;;;;;;6241586;23;20004;-70
2023/10/12 13:32:27;;;;;;;36.97;25.23;;;17.60;99.90;;;;;;6215472;23;20011;-71
2023/10/12 13:34:57;;;;;;;33.33;21.13;;;17.60;99.90;;;;;;6241935;23;20000;-71
2023/10/12 13:37:27;;;;;;;32.58;25.13;;;17.70;99.90;;;;;;6241464;23;20004;-71
2023/10/12 13:39:53;;;;;;;30.50;22.60;;;17.70;99.90;;;;;;6214783;23;20015;-71
2023/10/12 13:42:18;;;;;;;34.20;25.30;;;17.70;99.90;;;;;;6239677;23;20020;-71
2023/10/12 13:44:44;;;;;;;27.60;20.50;;;17.70;99.90;;;;;;6241849;23;20007;-71
2023/10/12 13:47:12;;;;;;;36.50;22.80;;;17.70;99.90;;;;;;6240749;23;20484;-71
2023/10/12 13:49:38;;;;;;;28.58;22.83;;;17.70;99.90;;;;;;6241995;23;20004;-71
2023/10/12 13:52:10;;;;;;;25.98;21.17;;;17.70;99.90;;;;;;6239779;23;20039;-71
2023/10/12 13:54:36;;;;;;;29.88;23.27;;;17.80;99.90;;;;;;6242046;23;20437;-71
2023/10/12 13:57:02;;;;;;;29.33;22.45;;;17.70;99.90;;;;;;6241042;23;20008;-71
2023/10/12 13:59:28;;;;;;;31.88;22.27;;;17.70;99.90;;;;;;6241513;23;20003;-71
2023/10/12 14:01:56;;;;;;;34.28;21.52;;;17.60;99.90;;;;;;6241311;23;20071;-71
2023/10/12 14:04:33;;;;;;;26.73;20.48;;;17.60;99.90;;;;;;6240681;23;20007;-71
2023/10/12 14:07:02;;;;;;;30.85;22.40;;;17.60;99.90;;;;;;6241769;23;20008;-71
2023/10/12 14:09:28;;;;;;;27.95;20.90;;;17.60;99.90;;;;;;6242163;23;20050;-71
2023/10/12 14:11:55;;;;;;;26.13;19.65;;;17.50;99.90;;;;;;6241433;23;20437;-71
2023/10/12 14:14:21;;;;;;;55.90;24.38;;;17.50;99.90;;;;;;6239796;23;20003;-71
2023/10/12 14:16:46;;;;;;;37.25;22.52;;;17.40;99.90;;;;;;6241342;23;20008;-71
2023/10/12 14:19:16;;;;;;;27.83;20.73;;;17.40;99.90;;;;;;6241388;23;20043;-71
2023/10/12 14:21:43;;;;;;;28.00;19.98;;;17.30;99.90;;;;;;6241617;23;20000;-71
2023/10/12 14:24:09;;;;;;;47.58;23.65;;;17.30;99.90;;;;;;6240745;23;20008;-71
2023/10/12 14:26:38;;;;;;;85.03;27.45;;;17.30;99.90;;;;;;6239874;23;20004;-71
2023/10/12 14:29:05;;;;;;;33.10;20.58;;;17.30;99.90;;;;;;6240275;23;20031;-71
2023/10/12 14:31:32;;;;;;;29.45;21.02;;;17.30;99.90;;;;;;6241144;23;20082;-71
2023/10/12 14:33:59;;;;;;;59.75;24.17;;;17.30;99.90;;;;;;6241541;23;20034;-71
2023/10/12 14:36:26;;;;;;;37.75;20.80;;;17.40;99.90;;;;;;6239945;23;20008;-71
2023/10/12 14:38:54;;;;;;;30.80;21.25;;;17.30;99.90;;;;;;6241505;23;20087;-71
2023/10/12 14:41:24;;;;;;;45.25;23.42;;;17.30;99.90;;;;;;6214667;23;20113;-71